Time;durP1;ratioP1;P1;durP2;ratioP2;P2;SDS_P1;SDS_P2;PMS_P1;PMS_P2;Temp;Humidity;BMP_temperature;BMP_pressure;BME280_temperature;BME280_humidity;BME280_pressure;Samples;Min_cycle;Max_cycle;Signal;HPM_P1;HPM_P2
2024/02/25 00:02:13;;;;;;;102.10;77.40;;;;;;;4.03;100.00;98414.52;109284;1254;59815;-74
2024/02/25 00:04:40;;;;;;;97.10;76.00;;;;;;;4.05;100.00;98415.63;109390;1254;66886;-75
2024/02/25 00:07:06;;;;;;;96.80;75.50;;;;;;;4.07;100.00;98414.98;109304;1259;60046;-75
2024/02/25 00:09:33;;;;;;;96.00;74.20;;;;;;;4.10;100.00;98412.59;109277;1254;65213;-75
2024/02/25 00:11:59;;;;;;;92.80;74.20;;;;;;;4.13;100.00;98411.91;109298;1254;59841;-74
2024/02/25 00:14:29;;;;;;;94.30;72.50;;;;;;;4.15;100.00;98411.82;109323;1254;59745;-76
2024/02/25 00:16:56;;;;;;;92.10;72.40;;;;;;;4.15;100.00;98413.55;109381;1254;67762;-75
2024/02/25 00:19:23;;;;;;;87.20;67.50;;;;;;;4.16;100.00;98403.85;109325;1254;61067;-74
2024/02/25 00:21:49;;;;;;;95.00;71.40;;;;;;;4.17;100.00;98404.86;109320;1254;65092;-74
2024/02/25 00:24:17;;;;;;;98.90;72.40;;;;;;;4.18;100.00;98402.17;109294;1254;60123;-73
2024/02/25 00:26:43;;;;;;;91.10;69.60;;;;;;;4.19;100.00;98398.27;109291;1255;59793;-74
2024/02/25 00:29:14;;;;;;;89.10;70.40;;;;;;;4.19;100.00;98395.98;109085;1254;66772;-74
2024/02/25 00:31:44;;;;;;;95.50;73.60;;;;;;;4.17;100.00;98394.45;109348;1254;60002;-74
2024/02/25 00:34:10;;;;;;;91.00;70.70;;;;;;;4.18;100.00;98390.20;109302;1254;65374;-75
2024/02/25 00:36:38;;;;;;;91.10;69.20;;;;;;;4.17;100.00;98390.79;109296;1254;59847;-74
2024/02/25 00:39:05;;;;;;;87.90;69.10;;;;;;;4.17;100.00;98389.54;109315;1254;60076;-75
2024/02/25 00:41:32;;;;;;;89.50;69.70;;;;;;;4.18;100.00;98388.60;109325;1254;66856;-73
2024/02/25 00:43:58;;;;;;;86.60;67.50;;;;;;;4.20;100.00;98386.40;109293;1256;61036;-74
2024/02/25 00:46:25;;;;;;;85.00;66.70;;;;;;;4.22;100.00;98385.80;109307;1254;65126;-75
2024/02/25 00:48:52;;;;;;;87.20;66.70;;;;;;;4.23;100.00;98384.36;109304;1255;59860;-75
2024/02/25 00:51:18;;;;;;;83.70;65.10;;;;;;;4.23;100.00;98376.24;109040;1254;59835;-74
2024/02/25 00:53:45;;;;;;;87.20;69.00;;;;;;;4.23;100.00;98371.13;109344;1254;67931;-74
2024/02/25 00:56:11;;;;;;;88.40;65.50;;;;;;;4.22;100.00;98374.34;109169;1254;61082;-75
2024/02/25 00:58:39;;;;;;;84.70;61.80;;;;;;;4.23;100.00;98370.60;109281;1254;64726;-73
2024/02/25 01:01:06;;;;;;;85.70;63.50;;;;;;;4.24;100.00;98368.45;109270;1254;59758;-75
2024/02/25 01:03:33;;;;;;;77.20;59.50;;;;;;;4.26;100.00;98368.36;109305;1254;60365;-75
2024/02/25 01:06:00;;;;;;;80.70;59.70;;;;;;;4.28;100.00;98366.48;109035;1254;67630;-75
2024/02/25 01:08:27;;;;;;;74.90;56.90;;;;;;;4.30;100.00;98358.32;109300;1254;60431;-74
2024/02/25 01:10:53;;;;;;;77.00;57.60;;;;;;;4.32;100.00;98358.34;109250;1255;64037;-75
2024/02/25 01:13:20;;;;;;;74.80;57.30;;;;;;;4.33;100.00;98359.17;109318;1254;59790;-73
2024/02/25 01:15:47;;;;;;;76.50;57.80;;;;;;;4.32;100.00;98359.75;109303;1257;59746;-74
2024/02/25 01:18:13;;;;;;;71.10;57.00;;;;;;;4.33;100.00;98356.75;109297;1254;66742;-76
2024/02/25 01:20:40;;;;;;;68.70;54.80;;;;;;;4.34;100.00;98362.47;109295;1254;61046;-74
2024/02/25 01:23:07;;;;;;;75.00;59.20;;;;;;;4.34;100.00;98372.48;109271;1254;65015;-74
2024/02/25 01:25:33;;;;;;;71.00;58.80;;;;;;;4.33;100.00;98377.81;109054;1254;60092;-72
2024/02/25 01:28:00;;;;;;;71.80;57.50;;;;;;;4.31;100.00;98378.31;109282;1254;59849;-75
2024/02/25 01:30:26;;;;;;;73.10;58.70;;;;;;;4.27;100.00;98379.69;109277;1254;66548;-72
2024/02/25 01:32:53;;;;;;;72.50;57.30;;;;;;;4.26;100.00;98383.13;109297;1254;61049;-73
2024/02/25 01:35:20;;;;;;;69.60;57.00;;;;;;;4.24;100.00;98378.28;109295;1254;65087;-73
2024/02/25 01:37:47;;;;;;;74.10;60.50;;;;;;;4.22;100.00;98376.80;108983;1254;59997;-73
2024/02/25 01:40:14;;;;;;;73.30;57.70;;;;;;;4.22;100.00;98377.02;109328;1254;60003;-73
2024/02/25 01:42:41;;;;;;;69.40;54.70;;;;;;;4.19;100.00;98380.48;109313;1254;67811;-73
2024/02/25 01:45:08;;;;;;;73.70;56.70;;;;;;;4.15;100.00;98378.57;109260;1256;61134;-73
2024/02/25 01:47:34;;;;;;;71.80;56.10;;;;;;;4.10;100.00;98376.92;109259;1254;64109;-73
2024/02/25 01:50:01;;;;;;;74.60;58.20;;;;;;;4.08;100.00;98374.16;109315;1254;59835;-73
2024/02/25 01:52:28;;;;;;;77.10;59.30;;;;;;;4.07;100.00;98372.98;109287;1256;59855;-73
2024/02/25 01:54:55;;;;;;;75.80;58.50;;;;;;;4.05;100.00;98377.69;109288;1257;67809;-73
2024/02/25 01:57:22;;;;;;;79.00;59.00;;;;;;;4.01;100.00;98378.77;109297;1254;60982;-73
2024/02/25 01:59:50;;;;;;;74.00;58.90;;;;;;;4.00;100.00;98377.79;109299;1254;64279;-73
2024/02/25 02:02:18;;;;;;;73.20;57.20;;;;;;;3.98;100.00;98373.63;109286;1259;59857;-73
2024/02/25 02:04:45;;;;;;;76.40;57.70;;;;;;;3.99;100.00;98370.98;109298;1254;59674;-74
2024/02/25 02:07:13;;;;;;;73.90;56.10;;;;;;;3.95;100.00;98374.30;109280;1254;68021;-73
2024/02/25 02:09:40;;;;;;;75.00;59.20;;;;;;;3.91;100.00;98375.54;109022;1254;60876;-74
2024/02/25 02:12:07;;;;;;;79.40;60.70;;;;;;;3.90;100.00;98375.61;109004;1254;65125;-73
2024/02/25 02:14:33;;;;;;;79.00;62.10;;;;;;;3.90;100.00;98377.23;109255;1254;59730;-74
2024/02/25 02:17:03;;;;;;;75.20;60.60;;;;;;;3.88;100.00;98379.08;109173;1254;59627;-73
2024/02/25 02:19:30;;;;;;;76.00;57.10;;;;;;;3.83;100.00;98378.60;109303;1254;68184;-73
2024/02/25 02:21:56;;;;;;;73.20;57.90;;;;;;;3.76;100.00;98384.23;109266;1255;61281;-73
2024/02/25 02:24:24;;;;;;;71.70;58.00;;;;;;;3.69;100.00;98390.01;109292;1254;64997;-74
2024/02/25 02:26:51;;;;;;;70.70;54.60;;;;;;;3.62;100.00;98390.01;109264;1254;59873;-74
2024/02/25 02:29:17;;;;;;;71.50;54.40;;;;;;;3.54;100.00;98387.92;109279;1254;59846;-74
2024/02/25 02:31:44;;;;;;;73.70;57.90;;;;;;;3.48;100.00;98383.81;109266;1254;66860;-73
2024/02/25 02:34:11;;;;;;;74.00;56.80;;;;;;;3.45;100.00;98385.73;109289;1254;68023;-74
2024/02/25 02:36:38;;;;;;;75.40;57.10;;;;;;;3.40;100.00;98382.07;109255;1254;65064;-74
2024/02/25 02:39:04;;;;;;;70.30;56.10;;;;;;;3.35;100.00;98387.27;109082;1254;60139;-74
2024/02/25 02:41:32;;;;;;;69.80;52.70;;;;;;;3.28;100.00;98392.51;109301;1254;59662;-74
2024/02/25 02:43:59;;;;;;;74.70;56.10;;;;;;;3.21;100.00;98388.26;109283;1258;67819;-74
2024/02/25 02:46:25;;;;;;;75.00;58.20;;;;;;;3.15;100.00;98382.40;109297;1254;60042;-74
2024/02/25 02:48:52;;;;;;;81.00;58.80;;;;;;;3.09;100.00;98380.38;109275;1254;65200;-74
2024/02/25 02:51:19;;;;;;;83.20;60.70;;;;;;;3.05;100.00;98382.52;109261;1254;59730;-74
2024/02/25 02:53:45;;;;;;;86.00;64.90;;;;;;;3.00;100.00;98380.98;109291;1254;59822;-74
2024/02/25 02:56:12;;;;;;;81.00;62.00;;;;;;;2.98;100.00;98378.98;108999;1254;67082;-74
2024/02/25 02:58:39;;;;;;;88.20;66.70;;;;;;;2.96;100.00;98382.06;109295;1254;61119;-74
2024/02/25 03:01:06;;;;;;;88.90;66.80;;;;;;;2.93;100.00;98389.39;109299;1254;64225;-74
2024/02/25 03:03:33;;;;;;;82.90;65.60;;;;;;;2.89;100.00;98390.08;109243;1254;59783;-74
2024/02/25 03:05:59;;;;;;;80.70;61.30;;;;;;;2.86;100.00;98396.36;109321;1254;59862;-74
2024/02/25 03:08:26;;;;;;;82.80;64.30;;;;;;;2.85;100.00;98398.88;109053;1254;67521;-75
2024/02/25 03:10:53;;;;;;;85.90;67.50;;;;;;;2.84;100.00;98395.73;109300;1254;60012;-74
2024/02/25 03:13:19;;;;;;;91.40;71.20;;;;;;;2.84;100.00;98392.76;109271;1254;65037;-74
2024/02/25 03:15:46;;;;;;;86.90;68.00;;;;;;;2.84;100.00;98381.88;109310;1254;59864;-74
2024/02/25 03:18:12;;;;;;;76.00;60.50;;;;;;;2.83;100.00;98381.05;109281;1254;59988;-74
2024/02/25 03:20:41;;;;;;;79.50;60.40;;;;;;;2.78;100.00;98385.14;109288;1254;67952;-74
2024/02/25 03:23:09;;;;;;;74.80;59.90;;;;;;;2.75;100.00;98387.39;109288;1254;59815;-74
2024/02/25 03:25:36;;;;;;;79.50;63.40;;;;;;;2.71;100.00;98392.65;109268;1254;65154;-74
2024/02/25 03:28:03;;;;;;;80.60;61.30;;;;;;;2.70;100.00;98390.23;109299;1254;60116;-74
2024/02/25 03:30:29;;;;;;;78.10;59.40;;;;;;;2.74;100.00;98394.10;109022;1254;59943;-74
2024/02/25 03:33:01;;;;;;;78.40;61.00;;;;;;;2.74;100.00;98399.88;108498;1254;1002446;-74
2024/02/25 03:35:31;;;;;;;79.00;59.30;;;;;;;2.75;100.00;98406.86;109282;1254;60032;-74
2024/02/25 03:38:00;;;;;;;79.80;59.60;;;;;;;2.72;100.00;98406.80;109161;1254;65077;-74
2024/02/25 03:40:26;;;;;;;73.80;57.30;;;;;;;2.69;100.00;98405.54;109294;1254;60003;-74
2024/02/25 03:42:53;;;;;;;81.90;61.70;;;;;;;2.67;100.00;98406.86;109360;1254;59939;-74
2024/02/25 03:45:20;;;;;;;80.90;62.10;;;;;;;2.66;100.00;98404.11;109315;1254;66898;-75
2024/02/25 03:47:48;;;;;;;83.10;65.70;;;;;;;2.65;100.00;98403.27;109291;1254;61064;-74
2024/02/25 03:50:14;;;;;;;82.50;65.50;;;;;;;2.65;100.00;98405.19;109305;1254;63945;-74
2024/02/25 03:52:41;;;;;;;80.50;61.30;;;;;;;2.65;100.00;98406.93;109288;1254;59763;-74
2024/02/25 03:55:08;;;;;;;81.80;62.60;;;;;;;2.66;100.00;98410.61;109296;1254;59731;-74
2024/02/25 03:57:36;;;;;;;86.70;63.80;;;;;;;2.68;100.00;98408.40;109321;1254;66897;-74
2024/02/25 04:00:03;;;;;;;87.70;68.20;;;;;;;2.71;100.00;98405.29;109296;1254;61042;-74
2024/02/25 04:02:30;;;;;;;84.80;66.60;;;;;;;2.73;100.00;98404.66;109289;1254;64045;-74
2024/02/25 04:04:57;;;;;;;91.30;72.50;;;;;;;2.75;100.00;98405.30;109270;1254;59783;-74
2024/02/25 04:07:23;;;;;;;93.50;73.90;;;;;;;2.76;100.00;98410.14;109316;1254;59689;-74
2024/02/25 04:09:50;;;;;;;97.20;72.20;;;;;;;2.76;100.00;98413.64;109072;1254;75107;-74
2024/02/25 04:12:17;;;;;;;92.50;69.80;;;;;;;2.80;100.00;98412.04;109309;1254;60109;-74
2024/02/25 04:14:43;;;;;;;86.80;66.10;;;;;;;2.83;100.00;98415.77;109285;1254;65329;-74
2024/02/25 04:17:10;;;;;;;91.80;69.10;;;;;;;2.82;100.00;98412.31;109313;1254;59764;-74
2024/02/25 04:19:36;;;;;;;89.80;65.30;;;;;;;2.81;100.00;98403.41;109290;1254;60176;-74
2024/02/25 04:22:03;;;;;;;86.90;65.50;;;;;;;2.84;100.00;98405.74;109008;1254;66837;-74
2024/02/25 04:24:30;;;;;;;86.50;64.70;;;;;;;2.86;100.00;98404.06;109265;1254;60155;-74
2024/02/25 04:26:56;;;;;;;83.10;66.60;;;;;;;2.88;100.00;98402.06;109298;1254;65017;-73
2024/02/25 04:29:23;;;;;;;89.80;66.40;;;;;;;2.92;100.00;98401.00;109277;1254;60110;-74
2024/02/25 04:31:50;;;;;;;89.90;68.50;;;;;;;2.96;100.00;98402.92;109271;1254;60305;-74
2024/02/25 04:34:16;;;;;;;94.30;71.30;;;;;;;2.98;100.00;98401.58;109296;1254;67747;-73
2024/02/25 04:36:46;;;;;;;91.70;71.70;;;;;;;3.00;100.00;98400.45;109303;1254;61264;-73
2024/02/25 04:39:13;;;;;;;;;;;;;;;2.99;100.00;98401.02;109329;1254;65130;-73
2024/02/25 04:41:39;;;;;;;84.10;63.30;;;;;;;2.98;100.00;98402.64;109269;1254;60036;-73
2024/02/25 04:44:08;;;;;;;87.50;67.60;;;;;;;2.98;100.00;98400.35;109296;1254;59972;-74
2024/02/25 04:46:35;;;;;;;90.10;68.80;;;;;;;2.97;100.00;98396.56;109277;1254;66806;-74
2024/02/25 04:49:02;;;;;;;86.70;66.90;;;;;;;2.95;100.00;98396.67;109311;1254;61091;-74
2024/02/25 04:51:28;;;;;;;86.10;63.30;;;;;;;2.92;100.00;98390.64;109262;1254;65073;-74
2024/02/25 04:53:57;;;;;;;82.00;62.60;;;;;;;2.91;100.00;98394.36;109070;1254;59838;-74
2024/02/25 04:56:27;;;;;;;84.60;64.20;;;;;;;2.87;100.00;98392.80;109287;1254;60017;-73
2024/02/25 04:58:54;;;;;;;82.40;62.90;;;;;;;2.81;100.00;98396.23;109297;1254;67815;-73
2024/02/25 05:01:22;;;;;;;81.90;67.70;;;;;;;2.77;100.00;98398.34;109276;1254;60032;-73
2024/02/25 05:03:48;;;;;;;81.00;62.70;;;;;;;2.75;100.00;98401.27;109295;1254;64955;-73
2024/02/25 05:06:15;;;;;;;79.50;61.10;;;;;;;2.71;100.00;98407.75;109278;1254;59809;-73
2024/02/25 05:08:42;;;;;;;74.90;57.20;;;;;;;2.68;100.00;98408.77;109282;1254;60283;-73
2024/02/25 05:11:08;;;;;;;80.20;62.40;;;;;;;2.66;100.00;98411.48;109287;1254;66817;-73
2024/02/25 05:13:35;;;;;;;74.80;61.90;;;;;;;2.64;100.00;98409.98;109306;1254;61200;-73
2024/02/25 05:16:06;;;;;;;75.20;60.00;;;;;;;2.63;100.00;98405.80;109261;1254;65299;-73
2024/02/25 05:18:32;;;;;;;78.50;58.30;;;;;;;2.62;100.00;98407.40;106998;1254;1002989;-73
2024/02/25 05:21:04;;;;;;;86.30;65.30;;;;;;;2.59;100.00;98412.27;109297;1254;59804;-73
2024/02/25 05:23:32;;;;;;;89.70;68.80;;;;;;;2.59;100.00;98413.17;109299;1254;67610;-73
2024/02/25 05:25:59;;;;;;;88.60;68.70;;;;;;;2.58;100.00;98417.61;109015;1254;59874;-73
2024/02/25 05:28:26;;;;;;;104.30;78.20;;;;;;;2.55;100.00;98418.59;109284;1254;64137;-73
2024/02/25 05:30:52;;;;;;;106.50;81.40;;;;;;;2.55;100.00;98419.30;109281;1254;59985;-73
2024/02/25 05:33:19;;;;;;;112.50;85.10;;;;;;;2.53;100.00;98417.46;109275;1254;59739;-73
2024/02/25 05:35:46;;;;;;;101.40;79.50;;;;;;;2.51;100.00;98420.36;107736;1254;1002906;-73
2024/02/25 05:38:13;;;;;;;108.60;82.10;;;;;;;2.50;100.00;98420.59;109283;1254;59824;-73
2024/02/25 05:40:43;;;;;;;102.90;80.40;;;;;;;2.49;100.00;98415.01;109246;1254;60324;-73
2024/02/25 05:43:09;;;;;;;;;;;;;;;2.49;100.00;98412.05;109331;1254;59753;-73
2024/02/25 05:45:36;;;;;;;102.60;76.20;;;;;;;2.47;100.00;98412.84;109248;1254;59666;-74
2024/02/25 05:48:03;;;;;;;119.00;89.10;;;;;;;2.45;100.00;98420.44;109339;1254;66734;-73
2024/02/25 05:50:29;;;;;;;129.40;95.40;;;;;;;2.43;100.00;98418.45;109032;1254;61139;-72
2024/02/25 05:52:56;;;;;;;124.70;97.70;;;;;;;2.40;100.00;98422.59;109277;1254;62426;-73
2024/02/25 05:55:22;;;;;;;131.00;101.50;;;;;;;2.40;100.00;98419.41;109279;1254;59825;-73
2024/02/25 05:57:49;;;;;;;123.50;94.10;;;;;;;2.42;100.00;98419.17;109309;1254;59714;-73
2024/02/25 06:00:16;;;;;;;121.50;90.80;;;;;;;2.45;100.00;98420.46;109269;1254;67781;-73
2024/02/25 06:02:45;;;;;;;113.10;82.90;;;;;;;2.45;100.00;98419.73;109276;1254;60964;-74
2024/02/25 06:05:16;;;;;;;111.50;84.60;;;;;;;2.45;100.00;98421.67;109241;1254;65184;-74
2024/02/25 06:07:43;;;;;;;110.90;83.20;;;;;;;2.46;100.00;98420.60;109289;1254;59815;-74
2024/02/25 06:10:10;;;;;;;111.80;84.30;;;;;;;2.46;100.00;98417.24;109051;1254;59845;-73
2024/02/25 06:12:38;;;;;;;103.20;78.30;;;;;;;2.46;100.00;98418.29;109269;1254;67779;-74
2024/02/25 06:15:11;;;;;;;101.10;77.30;;;;;;;2.47;100.00;98420.71;109285;1254;60180;-73
2024/02/25 06:17:39;;;;;;;107.40;79.20;;;;;;;2.50;100.00;98420.75;109266;1254;64854;-74
2024/02/25 06:20:08;;;;;;;95.60;68.90;;;;;;;2.53;100.00;98420.96;109278;1254;59845;-74
2024/02/25 06:22:40;;;;;;;88.00;67.10;;;;;;;2.57;100.00;98420.09;109297;1254;59825;-74
2024/02/25 06:25:07;;;;;;;79.60;58.10;;;;;;;2.62;100.00;98412.88;109274;1254;67868;-74
2024/02/25 06:27:35;;;;;;;73.60;58.20;;;;;;;2.67;100.00;98415.10;109179;1254;60780;-74
2024/02/25 06:30:07;;;;;;;72.90;55.20;;;;;;;2.73;100.00;98417.63;109047;1254;64858;-74
2024/02/25 06:32:34;;;;;;;71.10;55.30;;;;;;;2.81;100.00;98419.73;109238;1255;59821;-73
2024/02/25 06:35:02;;;;;;;77.20;59.20;;;;;;;2.89;100.00;98416.42;109302;1254;59777;-73
2024/02/25 06:37:29;;;;;;;77.20;59.80;;;;;;;2.97;100.00;98414.12;109281;1254;67842;-74
2024/02/25 06:39:56;;;;;;;69.90;55.70;;;;;;;3.05;100.00;98409.89;109257;1254;61159;-74
2024/02/25 06:42:23;;;;;;;72.80;55.00;;;;;;;3.12;100.00;98413.91;109284;1254;64160;-73
2024/02/25 06:44:50;;;;;;;75.70;60.30;;;;;;;3.20;100.00;98414.98;108517;1254;1002303;-74
2024/02/25 06:47:16;;;;;;;71.30;55.50;;;;;;;3.28;100.00;98414.80;109278;1254;60144;-74
2024/02/25 06:49:43;;;;;;;74.60;58.30;;;;;;;3.34;100.00;98418.53;109286;1254;59900;-74
2024/02/25 06:52:10;;;;;;;68.80;55.10;;;;;;;3.41;100.00;98414.38;109289;1256;59781;-74
2024/02/25 06:54:37;;;;;;;64.30;51.30;;;;;;;3.47;100.00;98414.75;109286;1254;64139;-74
2024/02/25 06:57:03;;;;;;;67.90;56.60;;;;;;;3.54;100.00;98419.19;109267;1254;59910;-72
2024/02/25 06:59:30;;;;;;;68.70;57.40;;;;;;;3.61;100.00;98423.25;109188;1254;60138;-73
2024/02/25 07:01:57;;;;;;;63.80;52.50;;;;;;;3.68;100.00;98421.67;109282;1254;67824;-73
2024/02/25 07:04:24;;;;;;;66.50;52.50;;;;;;;3.74;100.00;98415.58;109030;1254;60248;-73
2024/02/25 07:06:51;;;;;;;67.50;54.80;;;;;;;3.79;100.00;98416.23;109264;1254;65410;-73
2024/02/25 07:09:18;;;;;;;60.80;48.50;;;;;;;3.83;100.00;98413.54;109288;1254;60079;-74
2024/02/25 07:11:45;;;;;;;57.90;49.20;;;;;;;3.86;100.00;98409.58;109280;1254;59801;-74
2024/02/25 07:14:11;;;;;;;60.90;49.70;;;;;;;3.90;100.00;98407.77;109305;1254;66727;-73
2024/02/25 07:16:42;;;;;;;62.50;50.80;;;;;;;3.95;100.00;98410.51;109317;1254;60176;-74
2024/02/25 07:19:09;;;;;;;59.10;50.00;;;;;;;4.01;100.00;98404.27;109268;1254;64035;-74
2024/02/25 07:21:36;;;;;;;61.00;50.70;;;;;;;4.08;100.00;98400.20;109257;1254;59788;-73
2024/02/25 07:24:03;;;;;;;63.60;53.30;;;;;;;4.17;100.00;98399.91;109301;1254;60067;-73
2024/02/25 07:26:30;;;;;;;66.40;51.50;;;;;;;4.27;100.00;98400.14;109306;1254;67818;-73
2024/02/25 07:28:56;;;;;;;61.10;49.10;;;;;;;4.34;100.00;98394.14;109042;1254;60082;-74
2024/02/25 07:31:23;;;;;;;56.60;44.60;;;;;;;4.40;100.00;98387.48;109298;1254;65124;-74
2024/02/25 07:33:50;;;;;;;55.80;46.20;;;;;;;4.47;100.00;98386.27;109283;1254;59831;-74
2024/02/25 07:36:17;;;;;;;58.40;46.90;;;;;;;4.55;100.00;98385.30;109307;1254;59777;-75
2024/02/25 07:38:44;;;;;;;56.60;44.70;;;;;;;4.65;100.00;98382.52;109274;1254;66736;-75
2024/02/25 07:41:10;;;;;;;53.00;43.90;;;;;;;4.75;100.00;98376.37;109280;1254;59921;-75
2024/02/25 07:43:40;;;;;;;55.90;43.50;;;;;;;4.83;100.00;98372.93;109184;1254;65090;-74
2024/02/25 07:46:07;;;;;;;53.70;44.60;;;;;;;4.92;100.00;98371.90;109102;1254;59876;-73
2024/02/25 07:48:34;;;;;;;78.40;62.30;;;;;;;5.01;100.00;98365.42;109296;1254;59684;-74
2024/02/25 07:51:01;;;;;;;72.70;62.50;;;;;;;5.12;100.00;98357.98;109295;1254;67855;-74
2024/02/25 07:53:28;;;;;;;47.00;40.00;;;;;;;5.23;100.00;98352.10;109295;1254;59757;-74
2024/02/25 07:55:54;;;;;;;51.90;46.10;;;;;;;5.35;100.00;98348.45;109279;1254;64040;-74
2024/02/25 07:58:21;;;;;;;44.20;36.00;;;;;;;5.47;100.00;98342.98;109270;1254;60399;-74
2024/02/25 08:00:48;;;;;;;38.40;33.10;;;;;;;5.60;100.00;98339.09;109299;1254;59665;-73
2024/02/25 08:03:15;;;;;;;42.40;38.00;;;;;;;5.74;100.00;98338.30;109181;1254;66874;-74
2024/02/25 08:05:43;;;;;;;38.90;33.60;;;;;;;5.87;100.00;98332.77;109303;1254;61024;-74
2024/02/25 08:08:09;;;;;;;36.00;30.70;;;;;;;6.00;100.00;98333.80;109282;1254;65048;-74
2024/02/25 08:10:36;;;;;;;35.10;30.00;;;;;;;6.13;100.00;98329.66;109272;1254;59913;-74
2024/02/25 08:13:04;;;;;;;34.30;28.70;;;;;;;6.26;100.00;98331.52;109015;1254;59839;-74
2024/02/25 08:15:31;;;;;;;35.00;28.40;;;;;;;6.38;100.00;98330.11;109272;1254;66793;-73
2024/02/25 08:17:57;;;;;;;32.20;26.40;;;;;;;6.52;100.00;98329.23;109273;1254;59994;-74
2024/02/25 08:20:24;;;;;;;30.80;26.50;;;;;;;6.65;100.00;98323.50;109273;1254;65058;-74
2024/02/25 08:22:50;;;;;;;26.30;22.00;;;;;;;6.77;100.00;98317.87;109253;1254;59904;-73
2024/02/25 08:25:17;;;;;;;29.00;22.90;;;;;;;6.90;100.00;98320.23;109327;1254;59823;-74
2024/02/25 08:27:44;;;;;;;26.80;23.60;;;;;;;7.01;100.00;98321.65;109271;1254;67876;-74
2024/02/25 08:30:10;;;;;;;27.70;22.00;;;;;;;7.11;100.00;98319.95;109065;1254;61088;-74
2024/02/25 08:32:37;;;;;;;26.60;21.30;;;;;;;7.25;100.00;98316.36;109287;1254;64956;-73
2024/02/25 08:35:06;;;;;;;30.30;23.20;;;;;;;7.40;100.00;98313.48;109293;1254;59737;-74
2024/02/25 08:37:33;;;;;;;24.10;20.00;;;;;;;7.55;100.00;98311.27;109352;1254;59648;-75
2024/02/25 08:40:00;;;;;;;17.70;14.80;;;;;;;7.72;100.00;98314.20;109320;1254;66930;-74
2024/02/25 08:42:27;;;;;;;16.20;12.40;;;;;;;7.93;100.00;98314.56;109328;1254;61041;-75
2024/02/25 08:44:53;;;;;;;15.60;12.20;;;;;;;8.15;100.00;98310.79;109075;1254;65206;-75
2024/02/25 08:47:20;;;;;;;15.70;13.70;;;;;;;8.37;100.00;98310.52;109269;1254;59807;-75
2024/02/25 08:49:47;;;;;;;13.10;11.70;;;;;;;8.61;100.00;98312.10;109363;1254;60031;-74
2024/02/25 08:52:13;;;;;;;12.60;10.80;;;;;;;8.82;100.00;98309.05;109031;1257;66475;-75
2024/02/25 08:54:40;;;;;;;14.20;9.90;;;;;;;9.00;100.00;98305.64;109319;1254;60812;-75
2024/02/25 08:57:07;;;;;;;12.70;10.10;;;;;;;9.13;100.00;98306.66;109307;1254;64083;-76
2024/02/25 08:59:33;;;;;;;10.40;9.30;;;;;;;9.22;100.00;98300.34;109273;1254;60124;-74
2024/02/25 09:02:00;;;;;;;9.00;7.60;;;;;;;9.32;100.00;98295.84;109327;1254;59829;-76
2024/02/25 09:04:31;;;;;;;11.00;7.20;;;;;;;9.48;100.00;98296.64;109346;1254;66460;-75
2024/02/25 09:07:00;;;;;;;10.20;7.90;;;;;;;9.67;100.00;98301.66;109330;1254;59890;-74
2024/02/25 09:09:27;;;;;;;8.60;6.20;;;;;;;9.84;100.00;98301.25;108965;1254;65005;-75
2024/02/25 09:11:54;;;;;;;11.10;7.50;;;;;;;9.98;100.00;98300.52;109150;1256;59844;-74
2024/02/25 09:14:22;;;;;;;7.50;5.80;;;;;;;10.14;100.00;98297.70;109307;1254;59813;-73
2024/02/25 09:16:48;;;;;;;8.00;5.60;;;;;;;10.31;100.00;98292.19;109267;1254;66482;-73
2024/02/25 09:19:15;;;;;;;8.60;5.60;;;;;;;10.49;100.00;98286.90;109212;1254;61006;-74
2024/02/25 09:21:42;;;;;;;7.50;5.20;;;;;;;10.67;100.00;98284.64;109306;1254;64071;-73
2024/02/25 09:24:09;;;;;;;5.80;4.90;;;;;;;10.84;100.00;98286.79;109296;1254;59777;-74
2024/02/25 09:26:36;;;;;;;7.80;5.10;;;;;;;11.01;100.00;98284.20;109320;1254;60145;-73
2024/02/25 09:29:03;;;;;;;7.20;5.50;;;;;;;11.17;100.00;98285.63;109292;1255;66680;-75
2024/02/25 09:31:30;;;;;;;7.50;5.60;;;;;;;11.28;100.00;98287.58;109325;1254;60085;-74
2024/02/25 09:33:58;;;;;;;9.80;6.40;;;;;;;11.36;100.00;98283.34;109214;1254;65162;-74
2024/02/25 09:36:25;;;;;;;11.10;7.90;;;;;;;11.43;100.00;98280.81;109052;1254;59855;-74
2024/02/25 09:38:52;;;;;;;13.50;7.90;;;;;;;11.46;100.00;98282.85;109341;1254;59901;-74
2024/02/25 09:41:34;;;;;;;10.20;8.10;;;;;;;11.53;100.00;98284.67;109304;1254;67871;-73
2024/02/25 09:44:02;;;;;;;13.40;8.80;;;;;;;11.60;100.00;98285.86;109292;1254;60435;-74
2024/02/25 09:46:31;;;;;;;13.70;10.20;;;;;;;11.65;100.00;98283.61;109310;1254;64758;-74
2024/02/25 09:48:58;;;;;;;12.30;9.60;;;;;;;11.66;100.00;98281.77;109208;1254;59786;-74
2024/02/25 09:51:25;;;;;;;12.20;9.30;;;;;;;11.66;100.00;98286.06;109318;1254;59817;-74
2024/02/25 09:53:54;;;;;;;14.30;11.40;;;;;;;11.63;100.00;98288.02;109263;1254;67920;-74
2024/02/25 09:56:21;;;;;;;13.30;10.10;;;;;;;11.64;100.00;98287.62;109311;1254;60089;-74
2024/02/25 09:58:48;;;;;;;17.40;12.00;;;;;;;11.63;100.00;98289.84;109288;1254;64017;-74
2024/02/25 10:01:15;;;;;;;18.70;14.20;;;;;;;11.57;100.00;98291.40;109019;1254;60139;-74
2024/02/25 10:03:42;;;;;;;15.40;11.80;;;;;;;11.57;100.00;98288.59;109276;1254;59796;-75
2024/02/25 10:06:10;;;;;;;21.00;14.70;;;;;;;11.56;100.00;98284.26;109298;1254;67932;-74
2024/02/25 10:08:47;;;;;;;30.10;19.90;;;;;;;11.60;100.00;98281.40;109322;1254;60866;-73
2024/02/25 10:11:14;;;;;;;21.50;14.10;;;;;;;11.78;100.00;98276.16;109320;1254;64653;-74
2024/02/25 10:13:42;;;;;;;21.70;16.00;;;;;;;11.98;100.00;98267.02;109173;1254;59926;-73
2024/02/25 10:16:16;;;;;;;22.90;15.60;;;;;;;12.18;100.00;98264.98;109297;1254;59759;-73
2024/02/25 10:18:44;;;;;;;21.40;13.60;;;;;;;12.34;100.00;98266.11;109317;1254;66954;-72
2024/02/25 10:21:11;;;;;;;21.00;16.30;;;;;;;12.48;100.00;98262.91;109291;1254;61171;-73
2024/02/25 10:23:38;;;;;;;18.90;14.70;;;;;;;12.65;100.00;98261.84;109279;1254;64039;-72
2024/02/25 10:26:15;;;;;;;16.30;12.60;;;;;;;12.79;100.00;98260.95;109270;1254;59982;-73
2024/02/25 10:28:42;;;;;;;14.80;12.70;;;;;;;12.90;100.00;98257.50;109274;1254;59824;-73
2024/02/25 10:31:12;;;;;;;16.00;13.30;;;;;;;13.00;100.00;98253.75;109284;1254;67826;-73
2024/02/25 10:33:39;;;;;;;18.60;14.60;;;;;;;13.04;100.00;98247.31;109171;1254;60070;-73
2024/02/25 10:36:13;;;;;;;13.50;11.80;;;;;;;13.05;100.00;98246.20;109286;1254;65167;-73
2024/02/25 10:38:41;;;;;;;15.90;12.00;;;;;;;13.10;100.00;98240.41;109288;1254;59832;-74
2024/02/25 10:41:09;;;;;;;13.30;11.90;;;;;;;13.17;100.00;98234.21;109300;1254;59689;-73
2024/02/25 10:43:37;;;;;;;13.70;11.10;;;;;;;13.21;100.00;98227.26;109019;1254;66609;-74
2024/02/25 10:46:32;;;;;;;11.50;10.20;;;;;;;13.35;100.00;98226.55;109312;1254;61141;-73
2024/02/25 10:49:02;;;;;;;13.00;10.30;;;;;;;13.51;100.00;98220.16;109295;1254;64030;-73
2024/02/25 10:51:29;;;;;;;15.60;11.90;;;;;;;13.70;100.00;98217.80;109305;1254;59820;-73
2024/02/25 10:53:56;;;;;;;14.50;11.00;;;;;;;13.89;100.00;98215.24;109105;1254;60246;-73
2024/02/25 10:56:24;;;;;;;12.50;11.10;;;;;;;14.01;100.00;98211.61;109292;1254;67018;-73
2024/02/25 10:58:52;;;;;;;12.50;10.80;;;;;;;14.14;100.00;98208.61;109292;1254;61041;-73
2024/02/25 11:01:19;;;;;;;4.80;3.40;;;;;;;14.27;100.00;98204.09;109277;1254;64039;-73
2024/02/25 11:03:47;;;;;;;2.60;1.70;;;;;;;14.42;100.00;98205.59;109294;1254;59716;-73
2024/02/25 11:06:35;;;;;;;1.80;1.00;;;;;;;14.49;100.00;98201.30;109329;1254;59796;-72
2024/02/25 11:09:12;;;;;;;2.90;1.30;;;;;;;14.57;100.00;98200.57;109300;1254;67530;-73
2024/02/25 11:11:39;;;;;;;1.90;1.40;;;;;;;14.69;100.00;98199.63;109312;1254;60809;-74